sensor_id;sensor_type;location;lat;lon;timestamp;P1;durP1;ratioP1;P2;durP2;ratioP2
45676;SDS011;31390;51.186;6.830;2023-05-07T00:00:40;1.95;;;1.65;;
45676;SDS011;31390;51.186;6.830;2023-05-07T00:03:06;1.92;;;1.73;;
45676;SDS011;31390;51.186;6.830;2023-05-07T00:05:33;1.77;;;1.48;;
45676;SDS011;31390;51.186;6.830;2023-05-07T00:08:00;1.80;;;1.67;;
45676;SDS011;31390;51.186;6.830;2023-05-07T00:10:26;1.52;;;1.40;;
45676;SDS011;31390;51.186;6.830;2023-05-07T00:12:53;1.50;;;1.40;;
45676;SDS011;31390;51.186;6.830;2023-05-07T00:15:19;2.40;;;1.88;;
45676;SDS011;31390;51.186;6.830;2023-05-07T00:17:46;3.15;;;1.65;;
45676;SDS011;31390;51.186;6.830;2023-05-07T00:20:12;1.95;;;1.40;;
45676;SDS011;31390;51.186;6.830;2023-05-07T00:22:39;1.75;;;1.45;;
45676;SDS011;31390;51.186;6.830;2023-05-07T00:25:06;1.80;;;1.70;;
45676;SDS011;31390;51.186;6.830;2023-05-07T00:27:32;2.10;;;1.48;;
45676;SDS011;31390;51.186;6.830;2023-05-07T00:29:59;2.28;;;1.73;;
45676;SDS011;31390;51.186;6.830;2023-05-07T00:32:25;1.73;;;1.63;;
45676;SDS011;31390;51.186;6.830;2023-05-07T00:34:52;2.08;;;1.42;;
45676;SDS011;31390;51.186;6.830;2023-05-07T00:37:18;1.75;;;1.40;;
45676;SDS011;31390;51.186;6.830;2023-05-07T00:39:45;3.75;;;1.77;;
45676;SDS011;31390;51.186;6.830;2023-05-07T00:42:11;2.13;;;1.60;;
45676;SDS011;31390;51.186;6.830;2023-05-07T00:44:38;1.63;;;1.50;;
45676;SDS011;31390;51.186;6.830;2023-05-07T00:47:04;1.80;;;1.50;;
45676;SDS011;31390;51.186;6.830;2023-05-07T00:49:37;1.35;;;1.23;;
45676;SDS011;31390;51.186;6.830;2023-05-07T00:52:05;1.55;;;1.40;;
45676;SDS011;31390;51.186;6.830;2023-05-07T00:54:31;2.42;;;1.38;;
45676;SDS011;31390;51.186;6.830;2023-05-07T00:56:58;1.40;;;1.13;;
45676;SDS011;31390;51.186;6.830;2023-05-07T00:59:25;1.48;;;1.33;;
45676;SDS011;31390;51.186;6.830;2023-05-07T01:01:51;1.98;;;1.17;;
45676;SDS011;31390;51.186;6.830;2023-05-07T01:04:18;1.92;;;1.52;;
45676;SDS011;31390;51.186;6.830;2023-05-07T01:06:45;2.15;;;1.95;;
45676;SDS011;31390;51.186;6.830;2023-05-07T01:09:12;1.50;;;1.15;;
45676;SDS011;31390;51.186;6.830;2023-05-07T01:11:39;2.67;;;1.65;;
45676;SDS011;31390;51.186;6.830;2023-05-07T01:14:06;1.45;;;1.30;;
45676;SDS011;31390;51.186;6.830;2023-05-07T01:16:33;1.42;;;1.25;;
45676;SDS011;31390;51.186;6.830;2023-05-07T01:19:00;1.52;;;1.27;;
45676;SDS011;31390;51.186;6.830;2023-05-07T01:21:27;1.70;;;1.38;;
45676;SDS011;31390;51.186;6.830;2023-05-07T01:23:58;1.50;;;1.20;;
45676;SDS011;31390;51.186;6.830;2023-05-07T01:26:26;1.40;;;1.30;;
45676;SDS011;31390;51.186;6.830;2023-05-07T01:28:52;1.58;;;1.45;;
45676;SDS011;31390;51.186;6.830;2023-05-07T01:31:19;1.60;;;1.40;;
45676;SDS011;31390;51.186;6.830;2023-05-07T01:33:46;1.38;;;1.17;;
45676;SDS011;31390;51.186;6.830;2023-05-07T01:36:15;1.98;;;1.50;;
45676;SDS011;31390;51.186;6.830;2023-05-07T01:38:43;1.63;;;1.20;;
45676;SDS011;31390;51.186;6.830;2023-05-07T01:41:11;1.42;;;1.33;;
45676;SDS011;31390;51.186;6.830;2023-05-07T01:43:39;1.83;;;1.70;;
45676;SDS011;31390;51.186;6.830;2023-05-07T01:46:06;1.70;;;1.60;;
45676;SDS011;31390;51.186;6.830;2023-05-07T01:48:33;1.73;;;1.33;;
45676;SDS011;31390;51.186;6.830;2023-05-07T01:51:00;2.15;;;1.50;;
45676;SDS011;31390;51.186;6.830;2023-05-07T01:53:27;1.67;;;1.58;;
45676;SDS011;31390;51.186;6.830;2023-05-07T01:55:54;1.60;;;1.30;;
45676;SDS011;31390;51.186;6.830;2023-05-07T01:58:21;1.63;;;1.52;;
45676;SDS011;31390;51.186;6.830;2023-05-07T02:00:48;1.48;;;1.38;;
45676;SDS011;31390;51.186;6.830;2023-05-07T02:03:14;1.60;;;1.45;;
45676;SDS011;31390;51.186;6.830;2023-05-07T02:05:50;1.75;;;1.30;;
45676;SDS011;31390;51.186;6.830;2023-05-07T02:08:30;1.63;;;1.40;;
45676;SDS011;31390;51.186;6.830;2023-05-07T02:10:57;2.08;;;1.40;;
45676;SDS011;31390;51.186;6.830;2023-05-07T02:13:25;1.92;;;1.23;;
45676;SDS011;31390;51.186;6.830;2023-05-07T02:15:52;1.52;;;1.38;;
45676;SDS011;31390;51.186;6.830;2023-05-07T02:18:21;1.55;;;1.40;;
45676;SDS011;31390;51.186;6.830;2023-05-07T02:20:47;1.45;;;1.23;;
45676;SDS011;31390;51.186;6.830;2023-05-07T02:23:14;1.48;;;1.35;;
45676;SDS011;31390;51.186;6.830;2023-05-07T02:25:41;1.40;;;1.20;;
45676;SDS011;31390;51.186;6.830;2023-05-07T02:28:07;1.52;;;1.42;;
45676;SDS011;31390;51.186;6.830;2023-05-07T02:31:00;3.85;;;1.40;;
45676;SDS011;31390;51.186;6.830;2023-05-07T02:33:28;1.52;;;1.27;;
45676;SDS011;31390;51.186;6.830;2023-05-07T02:35:55;1.60;;;1.50;;
45676;SDS011;31390;51.186;6.830;2023-05-07T02:38:22;1.50;;;1.40;;
45676;SDS011;31390;51.186;6.830;2023-05-07T02:40:48;1.48;;;1.30;;
45676;SDS011;31390;51.186;6.830;2023-05-07T02:43:15;2.13;;;1.35;;
45676;SDS011;31390;51.186;6.830;2023-05-07T02:45:45;1.48;;;1.38;;
45676;SDS011;31390;51.186;6.830;2023-05-07T02:48:12;1.90;;;1.40;;
45676;SDS011;31390;51.186;6.830;2023-05-07T02:50:38;2.10;;;1.58;;
45676;SDS011;31390;51.186;6.830;2023-05-07T02:53:05;1.15;;;1.05;;
45676;SDS011;31390;51.186;6.830;2023-05-07T02:55:32;1.27;;;1.13;;
45676;SDS011;31390;51.186;6.830;2023-05-07T02:57:58;1.70;;;1.50;;
45676;SDS011;31390;51.186;6.830;2023-05-07T03:00:25;1.50;;;1.40;;
45676;SDS011;31390;51.186;6.830;2023-05-07T03:03:08;1.15;;;1.05;;
45676;SDS011;31390;51.186;6.830;2023-05-07T03:05:35;1.20;;;1.05;;
45676;SDS011;31390;51.186;6.830;2023-05-07T03:08:01;1.20;;;1.10;;
45676;SDS011;31390;51.186;6.830;2023-05-07T03:10:28;1.52;;;1.38;;
45676;SDS011;31390;51.186;6.830;2023-05-07T03:12:55;1.40;;;1.30;;
45676;SDS011;31390;51.186;6.830;2023-05-07T03:15:21;1.33;;;1.15;;
45676;SDS011;31390;51.186;6.830;2023-05-07T03:17:48;1.45;;;1.20;;
45676;SDS011;31390;51.186;6.830;2023-05-07T03:20:15;1.10;;;1.00;;
45676;SDS011;31390;51.186;6.830;2023-05-07T03:22:42;1.05;;;0.95;;
45676;SDS011;31390;51.186;6.830;2023-05-07T03:25:08;1.15;;;1.02;;
45676;SDS011;31390;51.186;6.830;2023-05-07T03:27:35;1.10;;;1.00;;
45676;SDS011;31390;51.186;6.830;2023-05-07T03:30:02;1.10;;;1.00;;
45676;SDS011;31390;51.186;6.830;2023-05-07T03:32:29;1.13;;;1.02;;
45676;SDS011;31390;51.186;6.830;2023-05-07T03:34:55;1.10;;;1.00;;
45676;SDS011;31390;51.186;6.830;2023-05-07T03:37:22;1.40;;;1.30;;
45676;SDS011;31390;51.186;6.830;2023-05-07T03:39:49;1.02;;;0.95;;
45676;SDS011;31390;51.186;6.830;2023-05-07T03:42:16;1.17;;;1.08;;
45676;SDS011;31390;51.186;6.830;2023-05-07T03:44:44;1.90;;;1.30;;
45676;SDS011;31390;51.186;6.830;2023-05-07T03:47:10;1.10;;;1.00;;
45676;SDS011;31390;51.186;6.830;2023-05-07T03:49:37;1.13;;;1.02;;
45676;SDS011;31390;51.186;6.830;2023-05-07T03:52:04;1.02;;;0.95;;
45676;SDS011;31390;51.186;6.830;2023-05-07T03:54:31;0.95;;;0.93;;
45676;SDS011;31390;51.186;6.830;2023-05-07T03:56:58;1.23;;;1.13;;
45676;SDS011;31390;51.186;6.830;2023-05-07T03:59:24;1.20;;;1.10;;
45676;SDS011;31390;51.186;6.830;2023-05-07T04:01:51;1.35;;;1.10;;
45676;SDS011;31390;51.186;6.830;2023-05-07T04:04:21;1.33;;;1.20;;
45676;SDS011;31390;51.186;6.830;2023-05-07T04:06:47;1.30;;;1.00;;
45676;SDS011;31390;51.186;6.830;2023-05-07T04:09:14;1.00;;;0.90;;
45676;SDS011;31390;51.186;6.830;2023-05-07T04:11:40;1.73;;;1.35;;
45676;SDS011;31390;51.186;6.830;2023-05-07T04:14:09;1.15;;;0.90;;
45676;SDS011;31390;51.186;6.830;2023-05-07T04:16:36;1.20;;;1.10;;
45676;SDS011;31390;51.186;6.830;2023-05-07T04:19:03;1.60;;;1.10;;
45676;SDS011;31390;51.186;6.830;2023-05-07T04:21:30;1.30;;;1.15;;
45676;SDS011;31390;51.186;6.830;2023-05-07T04:23:57;1.30;;;1.20;;
45676;SDS011;31390;51.186;6.830;2023-05-07T04:26:24;1.25;;;1.13;;
45676;SDS011;31390;51.186;6.830;2023-05-07T04:28:51;1.48;;;1.05;;
45676;SDS011;31390;51.186;6.830;2023-05-07T04:31:17;1.48;;;1.20;;
45676;SDS011;31390;51.186;6.830;2023-05-07T04:33:48;1.35;;;1.25;;
45676;SDS011;31390;51.186;6.830;2023-05-07T04:36:14;2.10;;;1.30;;
45676;SDS011;31390;51.186;6.830;2023-05-07T04:38:47;1.23;;;1.05;;
45676;SDS011;31390;51.186;6.830;2023-05-07T04:41:15;1.08;;;0.98;;
45676;SDS011;31390;51.186;6.830;2023-05-07T04:43:42;1.58;;;1.30;;
45676;SDS011;31390;51.186;6.830;2023-05-07T04:46:11;1.00;;;0.82;;
45676;SDS011;31390;51.186;6.830;2023-05-07T04:48:38;0.90;;;0.90;;
45676;SDS011;31390;51.186;6.830;2023-05-07T04:51:05;1.85;;;1.17;;
45676;SDS011;31390;51.186;6.830;2023-05-07T04:53:33;1.75;;;1.10;;
45676;SDS011;31390;51.186;6.830;2023-05-07T04:55:59;1.17;;;1.05;;
45676;SDS011;31390;51.186;6.830;2023-05-07T04:58:31;1.27;;;1.10;;
45676;SDS011;31390;51.186;6.830;2023-05-07T05:00:58;0.88;;;0.88;;
45676;SDS011;31390;51.186;6.830;2023-05-07T05:03:25;1.17;;;1.08;;
45676;SDS011;31390;51.186;6.830;2023-05-07T05:05:52;1.23;;;1.10;;
45676;SDS011;31390;51.186;6.830;2023-05-07T05:08:20;1.10;;;0.98;;
45676;SDS011;31390;51.186;6.830;2023-05-07T05:10:47;1.42;;;1.33;;
45676;SDS011;31390;51.186;6.830;2023-05-07T05:13:16;1.42;;;0.90;;
45676;SDS011;31390;51.186;6.830;2023-05-07T05:15:42;0.88;;;0.88;;
45676;SDS011;31390;51.186;6.830;2023-05-07T05:18:09;1.10;;;1.00;;
45676;SDS011;31390;51.186;6.830;2023-05-07T05:20:36;2.25;;;1.33;;
45676;SDS011;31390;51.186;6.830;2023-05-07T05:23:03;1.05;;;1.00;;
45676;SDS011;31390;51.186;6.830;2023-05-07T05:25:30;1.50;;;1.05;;
45676;SDS011;31390;51.186;6.830;2023-05-07T05:27:57;1.23;;;1.05;;
45676;SDS011;31390;51.186;6.830;2023-05-07T05:30:24;1.30;;;1.13;;
45676;SDS011;31390;51.186;6.830;2023-05-07T05:32:51;1.23;;;1.10;;
45676;SDS011;31390;51.186;6.830;2023-05-07T05:35:18;1.33;;;1.02;;
45676;SDS011;31390;51.186;6.830;2023-05-07T05:37:45;1.35;;;1.20;;
45676;SDS011;31390;51.186;6.830;2023-05-07T05:40:11;1.25;;;1.10;;
45676;SDS011;31390;51.186;6.830;2023-05-07T05:42:38;0.95;;;0.95;;
45676;SDS011;31390;51.186;6.830;2023-05-07T05:45:05;1.00;;;0.90;;
45676;SDS011;31390;51.186;6.830;2023-05-07T05:47:33;3.30;;;1.15;;
45676;SDS011;31390;51.186;6.830;2023-05-07T05:50:00;1.42;;;1.20;;
45676;SDS011;31390;51.186;6.830;2023-05-07T05:52:26;0.98;;;0.98;;
45676;SDS011;31390;51.186;6.830;2023-05-07T05:54:54;1.15;;;1.05;;
45676;SDS011;31390;51.186;6.830;2023-05-07T05:57:21;0.98;;;0.90;;
45676;SDS011;31390;51.186;6.830;2023-05-07T05:59:47;1.27;;;0.90;;
45676;SDS011;31390;51.186;6.830;2023-05-07T06:02:14;1.23;;;1.13;;
45676;SDS011;31390;51.186;6.830;2023-05-07T06:04:41;1.38;;;1.02;;
45676;SDS011;31390;51.186;6.830;2023-05-07T06:07:11;1.42;;;1.10;;
45676;SDS011;31390;51.186;6.830;2023-05-07T06:09:37;1.23;;;1.13;;
45676;SDS011;31390;51.186;6.830;2023-05-07T06:12:04;0.77;;;0.77;;
45676;SDS011;31390;51.186;6.830;2023-05-07T06:14:31;1.35;;;1.25;;
45676;SDS011;31390;51.186;6.830;2023-05-07T06:16:57;1.33;;;1.10;;
45676;SDS011;31390;51.186;6.830;2023-05-07T06:19:25;1.40;;;1.10;;
45676;SDS011;31390;51.186;6.830;2023-05-07T06:21:53;0.70;;;0.70;;
45676;SDS011;31390;51.186;6.830;2023-05-07T06:24:23;1.10;;;0.90;;
45676;SDS011;31390;51.186;6.830;2023-05-07T06:26:50;0.80;;;0.70;;
45676;SDS011;31390;51.186;6.830;2023-05-07T06:29:16;1.20;;;1.10;;
45676;SDS011;31390;51.186;6.830;2023-05-07T06:31:43;1.40;;;1.00;;
45676;SDS011;31390;51.186;6.830;2023-05-07T06:34:10;1.10;;;1.00;;
45676;SDS011;31390;51.186;6.830;2023-05-07T06:36:40;1.17;;;0.88;;
45676;SDS011;31390;51.186;6.830;2023-05-07T06:39:19;1.15;;;1.05;;
45676;SDS011;31390;51.186;6.830;2023-05-07T06:41:45;0.80;;;0.80;;
45676;SDS011;31390;51.186;6.830;2023-05-07T06:44:22;1.27;;;1.00;;
45676;SDS011;31390;51.186;6.830;2023-05-07T06:46:58;1.20;;;1.02;;
45676;SDS011;31390;51.186;6.830;2023-05-07T06:49:25;0.80;;;0.80;;
45676;SDS011;31390;51.186;6.830;2023-05-07T06:51:52;0.95;;;0.80;;
45676;SDS011;31390;51.186;6.830;2023-05-07T06:54:18;1.40;;;0.88;;
45676;SDS011;31390;51.186;6.830;2023-05-07T06:56:46;1.35;;;0.93;;
45676;SDS011;31390;51.186;6.830;2023-05-07T06:59:13;1.17;;;0.90;;
45676;SDS011;31390;51.186;6.830;2023-05-07T07:01:40;0.80;;;0.77;;
45676;SDS011;31390;51.186;6.830;2023-05-07T07:04:08;0.85;;;0.85;;
45676;SDS011;31390;51.186;6.830;2023-05-07T07:06:37;0.80;;;0.70;;
45676;SDS011;31390;51.186;6.830;2023-05-07T07:09:08;1.02;;;0.90;;
45676;SDS011;31390;51.186;6.830;2023-05-07T07:11:34;0.70;;;0.70;;
45676;SDS011;31390;51.186;6.830;2023-05-07T07:14:01;1.13;;;0.90;;
45676;SDS011;31390;51.186;6.830;2023-05-07T07:16:30;1.30;;;1.20;;
45676;SDS011;31390;51.186;6.830;2023-05-07T07:18:57;1.00;;;0.90;;
45676;SDS011;31390;51.186;6.830;2023-05-07T07:21:24;1.50;;;0.80;;
45676;SDS011;31390;51.186;6.830;2023-05-07T07:23:51;0.77;;;0.77;;
45676;SDS011;31390;51.186;6.830;2023-05-07T07:26:19;1.05;;;0.80;;
45676;SDS011;31390;51.186;6.830;2023-05-07T07:28:46;1.20;;;0.82;;
45676;SDS011;31390;51.186;6.830;2023-05-07T07:31:16;1.27;;;1.17;;
45676;SDS011;31390;51.186;6.830;2023-05-07T07:33:44;1.13;;;0.88;;
45676;SDS011;31390;51.186;6.830;2023-05-07T07:36:10;1.00;;;0.80;;
45676;SDS011;31390;51.186;6.830;2023-05-07T07:38:38;1.35;;;1.00;;
45676;SDS011;31390;51.186;6.830;2023-05-07T07:41:05;0.98;;;0.90;;
45676;SDS011;31390;51.186;6.830;2023-05-07T07:43:33;1.73;;;1.30;;
45676;SDS011;31390;51.186;6.830;2023-05-07T07:46:00;0.85;;;0.75;;
45676;SDS011;31390;51.186;6.830;2023-05-07T07:48:27;1.00;;;0.90;;
45676;SDS011;31390;51.186;6.830;2023-05-07T07:50:55;0.95;;;0.85;;
45676;SDS011;31390;51.186;6.830;2023-05-07T07:53:21;1.15;;;1.00;;
45676;SDS011;31390;51.186;6.830;2023-05-07T07:55:48;1.33;;;1.05;;
45676;SDS011;31390;51.186;6.830;2023-05-07T07:58:19;1.15;;;0.95;;
45676;SDS011;31390;51.186;6.830;2023-05-07T08:00:46;1.17;;;0.90;;
45676;SDS011;31390;51.186;6.830;2023-05-07T08:03:14;0.88;;;0.88;;
45676;SDS011;31390;51.186;6.830;2023-05-07T08:05:46;0.98;;;0.82;;
45676;SDS011;31390;51.186;6.830;2023-05-07T08:08:13;1.10;;;0.88;;
45676;SDS011;31390;51.186;6.830;2023-05-07T08:10:41;1.17;;;1.08;;
45676;SDS011;31390;51.186;6.830;2023-05-07T08:13:15;1.20;;;1.10;;
45676;SDS011;31390;51.186;6.830;2023-05-07T08:15:42;1.10;;;0.90;;
45676;SDS011;31390;51.186;6.830;2023-05-07T08:18:09;1.13;;;0.90;;
45676;SDS011;31390;51.186;6.830;2023-05-07T08:20:36;1.10;;;1.00;;
45676;SDS011;31390;51.186;6.830;2023-05-07T08:23:08;1.33;;;1.00;;
45676;SDS011;31390;51.186;6.830;2023-05-07T08:25:36;0.90;;;0.80;;
45676;SDS011;31390;51.186;6.830;2023-05-07T08:28:04;1.00;;;0.90;;
45676;SDS011;31390;51.186;6.830;2023-05-07T08:30:32;1.52;;;0.82;;
45676;SDS011;31390;51.186;6.830;2023-05-07T08:33:00;1.05;;;0.85;;
45676;SDS011;31390;51.186;6.830;2023-05-07T08:35:26;1.60;;;1.20;;
45676;SDS011;31390;51.186;6.830;2023-05-07T08:37:54;1.10;;;0.98;;
45676;SDS011;31390;51.186;6.830;2023-05-07T08:40:24;0.85;;;0.80;;
45676;SDS011;31390;51.186;6.830;2023-05-07T08:42:53;2.47;;;1.00;;
45676;SDS011;31390;51.186;6.830;2023-05-07T08:45:19;1.40;;;0.80;;
45676;SDS011;31390;51.186;6.830;2023-05-07T08:47:54;1.27;;;0.80;;
45676;SDS011;31390;51.186;6.830;2023-05-07T08:50:28;1.52;;;0.93;;
45676;SDS011;31390;51.186;6.830;2023-05-07T08:52:56;1.15;;;1.02;;
45676;SDS011;31390;51.186;6.830;2023-05-07T08:55:23;1.52;;;1.40;;
45676;SDS011;31390;51.186;6.830;2023-05-07T08:57:50;1.23;;;1.05;;
45676;SDS011;31390;51.186;6.830;2023-05-07T09:00:18;2.25;;;1.00;;
45676;SDS011;31390;51.186;6.830;2023-05-07T09:02:48;0.95;;;0.75;;
45676;SDS011;31390;51.186;6.830;2023-05-07T09:05:15;0.90;;;0.80;;
45676;SDS011;31390;51.186;6.830;2023-05-07T09:07:42;1.25;;;1.00;;
45676;SDS011;31390;51.186;6.830;2023-05-07T09:10:09;1.00;;;0.85;;
45676;SDS011;31390;51.186;6.830;2023-05-07T09:12:39;1.00;;;0.90;;
45676;SDS011;31390;51.186;6.830;2023-05-07T09:15:07;1.25;;;0.82;;
45676;SDS011;31390;51.186;6.830;2023-05-07T09:17:35;1.13;;;1.00;;
45676;SDS011;31390;51.186;6.830;2023-05-07T09:20:05;0.90;;;0.60;;
45676;SDS011;31390;51.186;6.830;2023-05-07T09:22:36;2.90;;;0.80;;
45676;SDS011;31390;51.186;6.830;2023-05-07T09:25:07;0.90;;;0.70;;
45676;SDS011;31390;51.186;6.830;2023-05-07T09:27:37;0.88;;;0.65;;
45676;SDS011;31390;51.186;6.830;2023-05-07T09:30:04;0.90;;;0.82;;
45676;SDS011;31390;51.186;6.830;2023-05-07T09:32:34;1.73;;;1.00;;
45676;SDS011;31390;51.186;6.830;2023-05-07T09:35:01;0.80;;;0.80;;
45676;SDS011;31390;51.186;6.830;2023-05-07T09:37:30;1.17;;;1.00;;
45676;SDS011;31390;51.186;6.830;2023-05-07T09:39:57;1.00;;;0.68;;
45676;SDS011;31390;51.186;6.830;2023-05-07T09:42:25;0.50;;;0.50;;
45676;SDS011;31390;51.186;6.830;2023-05-07T09:44:59;0.90;;;0.77;;
45676;SDS011;31390;51.186;6.830;2023-05-07T09:47:32;0.60;;;0.60;;
45676;SDS011;31390;51.186;6.830;2023-05-07T09:49:59;0.50;;;0.50;;
45676;SDS011;31390;51.186;6.830;2023-05-07T09:52:28;1.50;;;1.00;;
45676;SDS011;31390;51.186;6.830;2023-05-07T09:55:02;0.90;;;0.90;;
45676;SDS011;31390;51.186;6.830;2023-05-07T09:57:31;0.80;;;0.80;;
45676;SDS011;31390;51.186;6.830;2023-05-07T10:00:03;0.98;;;0.60;;
45676;SDS011;31390;51.186;6.830;2023-05-07T10:02:46;0.68;;;0.68;;
45676;SDS011;31390;51.186;6.830;2023-05-07T10:05:16;0.32;;;0.32;;
45676;SDS011;31390;51.186;6.830;2023-05-07T10:07:43;0.63;;;0.45;;
45676;SDS011;31390;51.186;6.830;2023-05-07T10:10:10;0.60;;;0.60;;
45676;SDS011;31390;51.186;6.830;2023-05-07T10:12:42;0.50;;;0.50;;
45676;SDS011;31390;51.186;6.830;2023-05-07T10:15:14;1.50;;;0.60;;
45676;SDS011;31390;51.186;6.830;2023-05-07T10:17:45;0.68;;;0.57;;
45676;SDS011;31390;51.186;6.830;2023-05-07T10:20:12;0.30;;;0.30;;
45676;SDS011;31390;51.186;6.830;2023-05-07T10:22:45;1.23;;;0.70;;
45676;SDS011;31390;51.186;6.830;2023-05-07T10:25:25;0.50;;;0.50;;
45676;SDS011;31390;51.186;6.830;2023-05-07T10:27:52;0.43;;;0.43;;
45676;SDS011;31390;51.186;6.830;2023-05-07T10:30:26;0.40;;;0.40;;
45676;SDS011;31390;51.186;6.830;2023-05-07T10:32:59;0.50;;;0.40;;
45676;SDS011;31390;51.186;6.830;2023-05-07T10:35:41;2.80;;;0.70;;
45676;SDS011;31390;51.186;6.830;2023-05-07T10:38:08;0.35;;;0.30;;
45676;SDS011;31390;51.186;6.830;2023-05-07T10:40:38;0.57;;;0.40;;
45676;SDS011;31390;51.186;6.830;2023-05-07T10:43:06;0.38;;;0.25;;
45676;SDS011;31390;51.186;6.830;2023-05-07T10:46:08;0.65;;;0.47;;
45676;SDS011;31390;51.186;6.830;2023-05-07T10:48:31;0.45;;;0.38;;
45676;SDS011;31390;51.186;6.830;2023-05-07T10:51:19;0.47;;;0.47;;
45676;SDS011;31390;51.186;6.830;2023-05-07T10:53:47;0.40;;;0.40;;
45676;SDS011;31390;51.186;6.830;2023-05-07T10:58:52;0.28;;;0.25;;
45676;SDS011;31390;51.186;6.830;2023-05-07T11:01:48;0.50;;;0.30;;
45676;SDS011;31390;51.186;6.830;2023-05-07T11:04:16;0.30;;;0.22;;
45676;SDS011;31390;51.186;6.830;2023-05-07T11:15:08;0.20;;;0.20;;
45676;SDS011;31390;51.186;6.830;2023-05-07T11:17:56;0.38;;;0.10;;
45676;SDS011;31390;51.186;6.830;2023-05-07T11:26:43;0.95;;;0.63;;
45676;SDS011;31390;51.186;6.830;2023-05-07T11:29:15;0.20;;;0.20;;
45676;SDS011;31390;51.186;6.830;2023-05-07T11:31:43;0.57;;;0.50;;
45676;SDS011;31390;51.186;6.830;2023-05-07T11:34:11;0.10;;;0.10;;
45676;SDS011;31390;51.186;6.830;2023-05-07T11:36:41;0.30;;;0.30;;
45676;SDS011;31390;51.186;6.830;2023-05-07T11:39:26;0.40;;;0.40;;
45676;SDS011;31390;51.186;6.830;2023-05-07T11:41:52;1.48;;;0.57;;
45676;SDS011;31390;51.186;6.830;2023-05-07T11:44:19;0.75;;;0.63;;
45676;SDS011;31390;51.186;6.830;2023-05-07T11:46:46;0.30;;;0.30;;
45676;SDS011;31390;51.186;6.830;2023-05-07T11:49:12;0.30;;;0.30;;
45676;SDS011;31390;51.186;6.830;2023-05-07T11:51:39;1.75;;;0.40;;
45676;SDS011;31390;51.186;6.830;2023-05-07T11:54:07;0.93;;;0.35;;
45676;SDS011;31390;51.186;6.830;2023-05-07T11:56:35;0.60;;;0.52;;
45676;SDS011;31390;51.186;6.830;2023-05-07T11:59:05;0.68;;;0.68;;
45676;SDS011;31390;51.186;6.830;2023-05-07T12:01:32;0.30;;;0.30;;
45676;SDS011;31390;51.186;6.830;2023-05-07T12:04:02;0.40;;;0.40;;
45676;SDS011;31390;51.186;6.830;2023-05-07T12:06:29;0.70;;;0.60;;
45676;SDS011;31390;51.186;6.830;2023-05-07T12:08:56;0.40;;;0.40;;
45676;SDS011;31390;51.186;6.830;2023-05-07T12:11:23;0.47;;;0.47;;
45676;SDS011;31390;51.186;6.830;2023-05-07T12:13:50;0.40;;;0.40;;
45676;SDS011;31390;51.186;6.830;2023-05-07T12:16:17;0.43;;;0.43;;
45676;SDS011;31390;51.186;6.830;2023-05-07T12:18:44;0.50;;;0.50;;
45676;SDS011;31390;51.186;6.830;2023-05-07T12:21:11;0.43;;;0.43;;
45676;SDS011;31390;51.186;6.830;2023-05-07T12:23:37;0.35;;;0.22;;
45676;SDS011;31390;51.186;6.830;2023-05-07T12:26:04;0.50;;;0.30;;
45676;SDS011;31390;51.186;6.830;2023-05-07T12:28:37;0.40;;;0.40;;
45676;SDS011;31390;51.186;6.830;2023-05-07T12:31:05;0.17;;;0.13;;
45676;SDS011;31390;51.186;6.830;2023-05-07T12:33:32;0.68;;;0.68;;
45676;SDS011;31390;51.186;6.830;2023-05-07T12:36:02;0.50;;;0.50;;
45676;SDS011;31390;51.186;6.830;2023-05-07T12:38:32;0.43;;;0.40;;
45676;SDS011;31390;51.186;6.830;2023-05-07T12:41:01;2.25;;;0.55;;
45676;SDS011;31390;51.186;6.830;2023-05-07T12:43:27;0.90;;;0.60;;
45676;SDS011;31390;51.186;6.830;2023-05-07T12:45:55;0.93;;;0.68;;
45676;SDS011;31390;51.186;6.830;2023-05-07T12:48:23;0.47;;;0.47;;
45676;SDS011;31390;51.186;6.830;2023-05-07T12:50:50;0.98;;;0.50;;
45676;SDS011;31390;51.186;6.830;2023-05-07T12:53:19;0.30;;;0.30;;
45676;SDS011;31390;51.186;6.830;2023-05-07T12:55:50;0.35;;;0.35;;
45676;SDS011;31390;51.186;6.830;2023-05-07T12:58:20;0.40;;;0.40;;
45676;SDS011;31390;51.186;6.830;2023-05-07T13:00:47;0.40;;;0.35;;
45676;SDS011;31390;51.186;6.830;2023-05-07T13:03:21;0.63;;;0.57;;
45676;SDS011;31390;51.186;6.830;2023-05-07T13:05:48;1.23;;;1.00;;
45676;SDS011;31390;51.186;6.830;2023-05-07T13:08:25;1.23;;;0.60;;
45676;SDS011;31390;51.186;6.830;2023-05-07T13:10:52;0.45;;;0.40;;
45676;SDS011;31390;51.186;6.830;2023-05-07T13:13:20;0.98;;;0.57;;
45676;SDS011;31390;51.186;6.830;2023-05-07T13:15:47;0.60;;;0.60;;
45676;SDS011;31390;51.186;6.830;2023-05-07T13:18:13;0.60;;;0.60;;
45676;SDS011;31390;51.186;6.830;2023-05-07T13:20:40;0.65;;;0.52;;
45676;SDS011;31390;51.186;6.830;2023-05-07T13:23:07;0.60;;;0.60;;
45676;SDS011;31390;51.186;6.830;2023-05-07T13:25:33;1.05;;;0.70;;
45676;SDS011;31390;51.186;6.830;2023-05-07T13:28:01;0.60;;;0.60;;
45676;SDS011;31390;51.186;6.830;2023-05-07T13:30:36;0.85;;;0.70;;
45676;SDS011;31390;51.186;6.830;2023-05-07T13:33:03;1.50;;;0.65;;
45676;SDS011;31390;51.186;6.830;2023-05-07T13:35:30;0.65;;;0.65;;
45676;SDS011;31390;51.186;6.830;2023-05-07T13:37:56;0.80;;;0.70;;
45676;SDS011;31390;51.186;6.830;2023-05-07T13:40:23;1.00;;;0.90;;
45676;SDS011;31390;51.186;6.830;2023-05-07T13:42:50;1.77;;;0.88;;
45676;SDS011;31390;51.186;6.830;2023-05-07T13:45:20;0.93;;;0.93;;
45676;SDS011;31390;51.186;6.830;2023-05-07T13:47:46;1.17;;;1.00;;
45676;SDS011;31390;51.186;6.830;2023-05-07T13:50:15;0.75;;;0.75;;
45676;SDS011;31390;51.186;6.830;2023-05-07T13:52:43;0.90;;;0.90;;
45676;SDS011;31390;51.186;6.830;2023-05-07T13:55:12;0.80;;;0.80;;
45676;SDS011;31390;51.186;6.830;2023-05-07T13:57:39;1.73;;;1.00;;
45676;SDS011;31390;51.186;6.830;2023-05-07T14:00:05;1.13;;;0.80;;
45676;SDS011;31390;51.186;6.830;2023-05-07T14:02:40;1.95;;;0.80;;
45676;SDS011;31390;51.186;6.830;2023-05-07T14:05:07;1.33;;;1.05;;
45676;SDS011;31390;51.186;6.830;2023-05-07T14:07:35;1.50;;;1.05;;
45676;SDS011;31390;51.186;6.830;2023-05-07T14:10:02;1.35;;;1.20;;
45676;SDS011;31390;51.186;6.830;2023-05-07T14:12:29;1.45;;;1.35;;
45676;SDS011;31390;51.186;6.830;2023-05-07T14:14:55;1.63;;;1.52;;
45676;SDS011;31390;51.186;6.830;2023-05-07T14:17:22;1.45;;;1.13;;
45676;SDS011;31390;51.186;6.830;2023-05-07T14:19:51;1.30;;;1.13;;
45676;SDS011;31390;51.186;6.830;2023-05-07T14:22:23;2.58;;;1.45;;
45676;SDS011;31390;51.186;6.830;2023-05-07T14:24:50;1.30;;;1.20;;
45676;SDS011;31390;51.186;6.830;2023-05-07T14:27:31;1.35;;;1.08;;
45676;SDS011;31390;51.186;6.830;2023-05-07T14:29:58;1.90;;;1.50;;
45676;SDS011;31390;51.186;6.830;2023-05-07T14:32:24;1.20;;;1.10;;
45676;SDS011;31390;51.186;6.830;2023-05-07T14:34:51;1.80;;;1.70;;
45676;SDS011;31390;51.186;6.830;2023-05-07T14:37:17;2.45;;;2.03;;
45676;SDS011;31390;51.186;6.830;2023-05-07T14:39:46;1.90;;;1.60;;
45676;SDS011;31390;51.186;6.830;2023-05-07T14:42:15;3.15;;;2.50;;
45676;SDS011;31390;51.186;6.830;2023-05-07T14:44:42;3.95;;;2.28;;
45676;SDS011;31390;51.186;6.830;2023-05-07T14:47:09;2.53;;;2.28;;
45676;SDS011;31390;51.186;6.830;2023-05-07T14:49:36;3.78;;;2.53;;
45676;SDS011;31390;51.186;6.830;2023-05-07T14:52:02;3.13;;;2.42;;
45676;SDS011;31390;51.186;6.830;2023-05-07T14:54:30;5.00;;;2.92;;
45676;SDS011;31390;51.186;6.830;2023-05-07T14:56:57;3.50;;;2.30;;
45676;SDS011;31390;51.186;6.830;2023-05-07T14:59:23;4.90;;;2.85;;
45676;SDS011;31390;51.186;6.830;2023-05-07T15:01:51;3.38;;;2.70;;
45676;SDS011;31390;51.186;6.830;2023-05-07T15:04:18;3.15;;;2.70;;
45676;SDS011;31390;51.186;6.830;2023-05-07T15:06:45;2.35;;;1.92;;
45676;SDS011;31390;51.186;6.830;2023-05-07T15:09:12;3.35;;;2.38;;
45676;SDS011;31390;51.186;6.830;2023-05-07T15:11:39;3.13;;;2.45;;